Portada
METAR-TAF:

METAR-TAF

Aeroports :

Annaba, Algèria

latitud: 36-50N, longitud: 007-49E, altitud: 4 m

Observació

L'informe es va fer fa 11 minuts, a les 19:00 UTC
Vent 6 kt del Nord
Temperatura 18°C
Humitat 88%
Pressió 1011 hPa
Visibilitat: 6000 m

METAR: DABB 181900Z 01006KT 6000 NSC 18/16 Q1011

Hora: 20:11 (19:11 UTC)

Pronòstic

L'informe es va fer fa 2 hores i 11 minuts, a les 17:00 UTC
Pronòstic vàlid del 18 a les 18 UTC al 19 a les 18 UTC
Vent 10 kt del Nord-Est
Visibilitat: 7000 m
Escasses núvols a una alçada de 2600 ft
Cel ennuvolat a una alçada de 20000 ft
Probabilitat 30% :
Temporalment
l' 18 a les 18 UTC al 18 a les 21 UTC
Escasses núvols a una alçada de 2300 ft, Cumulus congestus.
Evolucionant progressivament
l' 18 a les 19 UTC al 18 a les 21 UTC
Vent 8 kt del Sud/Sud-Est

TAF: DABB 181700Z 1818/1918 05010KT 7000 FEW026 BKN200 PROB30 TEMPO 1818/1821 FEW023TCU BECMG 1819/1821 16008KT

Observacions i pronòstics meteorològics de més de 4000 aeroports (METAR i TAF).

Les estacions disponibles són els punts grocs i vermells al mapa.

Posi el ratolí al punt desitjat per veure el nom de l'estació.

Feu clic per veure les observacions i els pronòstics meteorològics.

Per canviar el mapa: feu clic els botons verds amb una creu de color negre per apropar; al botó verd amb un guió per allunyar la imatge; o en les fletxes verdes per a mapes adjacents.


METAR-TAF: